createdAt,value
2018-10-09T00:00:03.898Z,29.60
2018-10-09T00:01:35.470Z,31.20
2018-10-09T00:03:07.044Z,28.30
2018-10-09T00:04:38.617Z,28.40
2018-10-09T00:06:10.188Z,30.20
2018-10-09T00:07:41.762Z,30.80
2018-10-09T00:09:13.334Z,30.50
2018-10-09T00:10:44.908Z,31.30
2018-10-09T00:12:16.480Z,29.70
2018-10-09T00:13:48.580Z,32.90
2018-10-09T00:15:19.627Z,30.30
2018-10-09T00:16:51.298Z,31.40
2018-10-09T00:18:22.770Z,29.40
2018-10-09T00:19:54.344Z,28.80
2018-10-09T00:21:25.935Z,30.60
2018-10-09T00:22:57.647Z,26.10
2018-10-09T00:24:29.062Z,29.30
2018-10-09T00:26:00.712Z,27.20
2018-10-09T00:27:32.217Z,28.20
2018-10-09T00:29:03.886Z,24.30
2018-10-09T00:30:35.353Z,25.50
2018-10-09T00:32:06.925Z,24.20
2018-10-09T00:33:38.498Z,25.20
2018-10-09T00:35:10.468Z,22.30
2018-10-09T00:36:41.647Z,20.60
2018-10-09T00:38:13.233Z,24.60
2018-10-09T00:39:45.322Z,21.40
2018-10-09T00:41:16.363Z,19.10
2018-10-09T00:42:47.962Z,19.50
2018-10-09T00:44:19.511Z,15.90
2018-10-09T00:45:51.121Z,17.10
2018-10-09T00:47:22.657Z,15.00
2018-10-09T00:48:54.731Z,14.20
2018-10-09T00:50:25.817Z,11.60
2018-10-09T00:51:57.376Z,13.00
2018-10-09T00:53:29.093Z,13.30
2018-10-09T00:55:00.535Z,13.20
2018-10-09T00:56:32.092Z,12.00
2018-10-09T00:58:03.662Z,11.30
2018-10-09T00:59:35.236Z,10.90
2018-10-09T01:01:06.832Z,11.70
2018-10-09T01:02:38.379Z,12.70
2018-10-09T01:04:09.952Z,11.60
2018-10-09T01:05:41.932Z,10.10
2018-10-09T01:08:44.672Z,10.50
2018-10-09T01:10:16.321Z,9.60
2018-10-09T01:11:48.220Z,11.70
2018-10-09T01:13:19.388Z,10.30
2018-10-09T01:14:50.977Z,10.10
2018-10-09T01:16:22.537Z,9.90
2018-10-09T01:17:54.106Z,10.20
2018-10-09T01:19:25.682Z,11.90
2018-10-09T01:20:57.454Z,10.90
2018-10-09T01:22:28.825Z,10.50
2018-10-09T01:24:00.447Z,10.30
2018-10-09T01:25:31.969Z,11.20
2018-10-09T01:27:03.545Z,11.70
2018-10-09T01:28:35.115Z,12.50
2018-10-09T01:30:07.088Z,11.60
2018-10-09T01:31:38.264Z,13.70
2018-10-09T01:33:09.850Z,12.60
2018-10-09T01:34:41.406Z,13.90
2018-10-09T01:36:13.077Z,13.10
2018-10-09T01:37:44.776Z,13.30
2018-10-09T01:39:16.122Z,12.60
2018-10-09T01:40:47.696Z,12.40
2018-10-09T01:42:19.267Z,14.90
2018-10-09T01:45:22.412Z,12.70
2018-10-09T01:46:54.289Z,13.20
2018-10-09T01:48:25.664Z,14.00
2018-10-09T01:49:57.130Z,13.10
2018-10-09T01:51:28.703Z,12.40
2018-10-09T01:53:00.579Z,13.80
2018-10-09T01:54:31.874Z,13.20
2018-10-09T01:56:03.421Z,15.00
2018-10-09T01:57:34.993Z,14.50
2018-10-09T01:59:06.579Z,15.90
2018-10-09T02:00:38.138Z,15.20
2018-10-09T02:02:09.783Z,17.20
2018-10-09T02:03:41.283Z,14.90
2018-10-09T02:05:12.869Z,17.20
2018-10-09T02:06:44.629Z,17.60
2018-10-09T02:08:16.006Z,17.40
2018-10-09T02:09:47.577Z,19.10
2018-10-09T02:11:19.146Z,19.80
2018-10-09T02:12:50.720Z,20.10
2018-10-09T02:14:22.291Z,21.10
2018-10-09T02:15:53.864Z,19.30
2018-10-09T02:17:25.445Z,18.60
2018-10-09T02:18:57.009Z,21.60
2018-10-09T02:20:28.581Z,22.50
2018-10-09T02:22:00.168Z,21.30
2018-10-09T02:23:31.764Z,21.10
2018-10-09T02:25:03.399Z,22.90
2018-10-09T02:26:34.874Z,20.60
2018-10-09T02:28:06.458Z,25.40
2018-10-09T02:29:38.066Z,24.80
2018-10-09T02:31:09.590Z,27.80
2018-10-09T02:32:41.172Z,26.00
2018-10-09T02:34:12.754Z,30.00
2018-10-09T02:35:44.311Z,35.50
2018-10-09T02:37:15.982Z,31.30
2018-10-09T02:38:47.453Z,32.70
2018-10-09T02:40:19.026Z,34.70
2018-10-09T02:41:50.625Z,39.00
2018-10-09T02:43:22.425Z,34.90
2018-10-09T02:44:53.753Z,38.90
2018-10-09T02:46:25.314Z,41.80
2018-10-09T02:47:56.891Z,35.50
2018-10-09T02:49:28.455Z,38.60
2018-10-09T02:51:00.050Z,36.80
2018-10-09T02:52:31.599Z,35.80
2018-10-09T02:54:03.176Z,39.10
2018-10-09T02:55:34.749Z,42.30
2018-10-09T02:57:06.322Z,43.30
2018-10-09T02:58:37.891Z,46.80
2018-10-09T03:00:09.768Z,47.20
2018-10-09T03:01:41.136Z,40.80
2018-10-09T03:03:12.606Z,45.60
2018-10-09T03:04:44.188Z,42.30
2018-10-09T03:06:15.789Z,43.40
2018-10-09T03:07:47.425Z,43.00
2018-10-09T03:09:19.044Z,42.60
2018-10-09T03:10:50.474Z,39.70
2018-10-09T03:12:22.041Z,44.50
2018-10-09T03:13:53.614Z,62.60
2018-10-09T03:15:25.186Z,49.10
2018-10-09T03:16:57.286Z,42.80
2018-10-09T03:18:28.331Z,44.90
2018-10-09T03:20:00.003Z,50.70
2018-10-09T03:21:31.479Z,49.00
2018-10-09T03:23:03.047Z,47.40
2018-10-09T03:24:34.619Z,44.80
2018-10-09T03:26:06.195Z,46.00
2018-10-09T03:27:37.766Z,44.70
2018-10-09T03:29:09.337Z,51.40
2018-10-09T03:30:40.909Z,48.60
2018-10-09T03:32:12.481Z,49.20
2018-10-09T03:33:44.357Z,45.70
2018-10-09T03:35:15.624Z,45.90
2018-10-09T03:36:47.198Z,50.00
2018-10-09T03:38:18.870Z,54.40
2018-10-09T03:39:50.342Z,55.60
2018-10-09T03:41:21.915Z,52.90
2018-10-09T03:42:53.491Z,52.40
2018-10-09T03:44:25.060Z,54.10
2018-10-09T03:45:56.635Z,54.00
2018-10-09T03:47:28.204Z,49.90
2018-10-09T03:48:59.981Z,54.90
2018-10-09T03:50:31.350Z,55.00
2018-10-09T03:52:02.923Z,50.60
2018-10-09T03:53:34.498Z,56.70
2018-10-09T03:55:06.068Z,62.50
2018-10-09T03:56:37.741Z,56.80
2018-10-09T03:58:09.215Z,57.30
2018-10-09T03:59:41.090Z,52.50
2018-10-09T04:01:12.358Z,57.70
2018-10-09T04:02:44.232Z,62.30
2018-10-09T04:04:15.503Z,66.90
2018-10-09T04:05:47.076Z,77.70
2018-10-09T04:07:18.648Z,61.60
2018-10-09T04:08:50.370Z,76.00
2018-10-09T04:10:21.794Z,141.60
2018-10-09T04:11:53.367Z,348.90
2018-10-09T04:13:24.940Z,76.10
2018-10-09T04:14:56.612Z,70.70
2018-10-09T04:16:28.085Z,70.80
2018-10-09T04:17:59.657Z,65.70
2018-10-09T04:19:31.314Z,68.30
2018-10-09T04:21:02.802Z,71.40
2018-10-09T04:22:34.379Z,65.70
2018-10-09T04:24:05.953Z,94.40
2018-10-09T04:25:37.522Z,100.00
2018-10-09T04:27:09.092Z,82.70
2018-10-09T04:28:40.667Z,70.70
2018-10-09T04:30:12.237Z,75.90
2018-10-09T04:33:15.483Z,64.00
2018-10-09T04:34:46.955Z,62.70
2018-10-09T04:36:18.529Z,63.70
2018-10-09T04:37:50.103Z,64.50
2018-10-09T04:39:21.772Z,64.10
2018-10-09T04:40:53.244Z,64.60
2018-10-09T04:42:24.816Z,61.50
2018-10-09T04:43:56.392Z,69.50
2018-10-09T04:45:28.126Z,66.40
2018-10-09T04:47:00.040Z,70.00
2018-10-09T04:48:31.105Z,75.70
2018-10-09T04:50:02.682Z,79.70
2018-10-09T04:51:34.350Z,78.20
2018-10-09T04:53:05.870Z,74.20
2018-10-09T04:54:37.394Z,76.80
2018-10-09T04:56:08.965Z,70.90
2018-10-09T04:57:40.537Z,72.20
2018-10-09T04:59:12.110Z,75.10
2018-10-09T05:02:15.254Z,79.60
2018-10-09T05:03:46.825Z,81.70
2018-10-09T05:05:18.398Z,91.30
2018-10-09T05:06:49.969Z,65.40
2018-10-09T05:08:21.540Z,76.80
2018-10-09T05:09:53.313Z,72.00
2018-10-09T05:11:24.685Z,61.00
2018-10-09T05:12:56.788Z,106.60
2018-10-09T05:14:27.831Z,68.30
2018-10-09T05:15:59.401Z,59.70
2018-10-09T05:17:30.974Z,56.80
2018-10-09T05:19:02.545Z,59.80
2018-10-09T05:20:34.118Z,79.20
2018-10-09T05:22:05.690Z,91.50
2018-10-09T05:23:37.260Z,91.90
2018-10-09T05:25:08.832Z,90.80
2018-10-09T05:26:40.404Z,105.60
2018-10-09T05:28:12.527Z,93.10
2018-10-09T05:29:43.852Z,93.50
2018-10-09T05:31:15.263Z,95.00
2018-10-09T05:32:46.691Z,93.60
2018-10-09T05:34:18.365Z,96.40
2018-10-09T05:35:49.835Z,92.60
2018-10-09T05:37:21.406Z,88.00
2018-10-09T05:38:52.979Z,92.20
2018-10-09T05:40:24.552Z,99.10
2018-10-09T05:41:56.122Z,108.60
2018-10-09T05:43:27.694Z,119.60
2018-10-09T05:44:59.266Z,101.20
2018-10-09T05:46:30.938Z,126.40
2018-10-09T05:48:02.410Z,101.70
2018-10-09T05:49:33.982Z,103.20
2018-10-09T05:51:05.555Z,100.80
2018-10-09T05:52:37.176Z,103.60
2018-10-09T05:54:08.702Z,107.40
2018-10-09T05:55:40.273Z,114.20
2018-10-09T05:57:11.841Z,113.30
2018-10-09T05:58:43.417Z,113.40
2018-10-09T06:00:14.987Z,111.90
2018-10-09T06:03:18.131Z,128.00
2018-10-09T06:04:50.107Z,106.40
2018-10-09T06:06:21.275Z,113.60
2018-10-09T06:07:52.849Z,114.30
2018-10-09T06:09:24.420Z,117.80
2018-10-09T06:10:56.725Z,116.00
2018-10-09T06:12:27.564Z,120.20
2018-10-09T06:13:59.137Z,114.10
2018-10-09T06:15:30.722Z,123.30
2018-10-09T06:17:02.381Z,119.90
2018-10-09T06:18:33.853Z,121.90
2018-10-09T06:20:05.429Z,111.80
2018-10-09T06:21:37.002Z,139.00
2018-10-09T06:23:08.672Z,140.90
2018-10-09T06:24:40.144Z,124.10
2018-10-09T06:26:11.716Z,138.90
2018-10-09T06:27:43.594Z,165.80
2018-10-09T06:29:14.864Z,119.60
2018-10-09T06:30:46.433Z,117.20
2018-10-09T06:32:18.007Z,106.50
2018-10-09T06:33:49.606Z,134.10
2018-10-09T06:35:21.452Z,125.60
2018-10-09T06:36:52.724Z,112.90
2018-10-09T06:38:24.297Z,105.30
2018-10-09T06:39:55.869Z,104.10
2018-10-09T06:41:27.694Z,97.10
2018-10-09T06:42:59.019Z,144.40
2018-10-09T06:44:30.588Z,142.80
2018-10-09T06:46:02.161Z,322.20
2018-10-09T06:47:33.924Z,202.20
2018-10-09T06:49:05.306Z,177.40
2018-10-09T06:50:36.880Z,218.10
2018-10-09T06:52:08.451Z,108.60
2018-10-09T06:53:40.137Z,110.80
2018-10-09T06:55:11.596Z,152.50
2018-10-09T06:56:43.169Z,102.90
2018-10-09T06:58:14.741Z,115.50
2018-10-09T06:59:46.415Z,96.90
2018-10-09T07:01:17.887Z,131.10
2018-10-09T07:02:49.460Z,105.40
2018-10-09T07:04:21.033Z,79.50
2018-10-09T07:05:52.905Z,77.50
2018-10-09T07:07:24.225Z,74.60
2018-10-09T07:10:27.320Z,72.80
2018-10-09T07:11:58.994Z,88.80
2018-10-09T07:13:30.465Z,82.60
2018-10-09T07:15:02.038Z,82.40
2018-10-09T07:16:33.611Z,85.10
2018-10-09T07:18:05.433Z,83.10
2018-10-09T07:19:36.755Z,141.90
2018-10-09T07:21:08.325Z,85.00
2018-10-09T07:22:39.899Z,88.40
2018-10-09T07:24:11.473Z,141.70
2018-10-09T07:27:14.617Z,83.60
2018-10-09T07:28:46.190Z,155.50
2018-10-09T07:30:17.760Z,163.60
2018-10-09T07:31:49.332Z,93.10
2018-10-09T07:33:20.904Z,101.80
2018-10-09T07:36:24.148Z,95.50
2018-10-09T07:37:56.150Z,114.00
2018-10-09T07:39:27.195Z,192.50
2018-10-09T07:40:58.767Z,99.20
2018-10-09T07:42:30.452Z,61.20
2018-10-09T07:44:02.002Z,64.50
2018-10-09T07:45:33.483Z,64.80
2018-10-09T07:47:05.082Z,70.10
2018-10-09T07:48:36.628Z,59.20
2018-10-09T07:50:08.200Z,205.00
2018-10-09T07:51:40.287Z,87.90
2018-10-09T07:53:11.360Z,78.00
2018-10-09T07:54:43.042Z,106.30
2018-10-09T07:56:14.507Z,142.00
2018-10-09T07:57:46.080Z,72.70
2018-10-09T07:59:17.632Z,50.00
2018-10-09T08:00:49.205Z,54.90
2018-10-09T08:02:20.779Z,46.70
2018-10-09T08:03:52.348Z,44.00
2018-10-09T08:05:23.943Z,45.90
2018-10-09T08:06:55.492Z,34.50
2018-10-09T08:08:27.064Z,30.40
2018-10-09T08:09:58.638Z,32.20
2018-10-09T08:11:30.211Z,36.80
2018-10-09T08:13:01.982Z,34.90
2018-10-09T08:14:33.353Z,34.10
2018-10-09T08:16:04.939Z,33.90
2018-10-09T08:17:36.550Z,35.20
2018-10-09T08:19:08.242Z,30.40
2018-10-09T08:20:39.644Z,29.00
2018-10-09T08:22:11.224Z,26.00
2018-10-09T08:23:42.826Z,28.90
2018-10-09T08:25:14.359Z,23.70
2018-10-09T08:26:45.932Z,22.80
2018-10-09T08:28:17.502Z,23.80
2018-10-09T08:29:49.075Z,31.10
2018-10-09T08:31:20.748Z,27.40
2018-10-09T08:32:52.967Z,21.40
2018-10-09T08:34:23.825Z,24.30
2018-10-09T08:35:55.364Z,21.40
2018-10-09T08:37:27.239Z,23.80
2018-10-09T08:38:59.047Z,29.30
2018-10-09T08:40:30.193Z,20.40
2018-10-09T08:42:01.658Z,19.80
2018-10-09T08:43:33.326Z,24.00
2018-10-09T08:45:05.110Z,20.90
2018-10-09T08:46:36.427Z,17.70
2018-10-09T08:48:07.960Z,19.70
2018-10-09T08:49:39.969Z,16.80
2018-10-09T08:51:11.123Z,17.50
2018-10-09T08:52:42.678Z,18.00
2018-10-09T08:54:14.300Z,18.50
2018-10-09T08:55:46.142Z,18.80
2018-10-09T08:57:17.476Z,17.70
2018-10-09T08:58:48.965Z,13.50
2018-10-09T09:00:20.725Z,15.10
2018-10-09T09:01:52.163Z,16.50
2018-10-09T09:03:23.673Z,19.50
2018-10-09T09:06:27.114Z,16.00
2018-10-09T09:07:58.781Z,15.70
2018-10-09T09:09:30.007Z,19.10
2018-10-09T09:11:01.532Z,18.10
2018-10-09T09:12:33.098Z,18.70
2018-10-09T09:14:04.769Z,20.00
2018-10-09T09:17:08.026Z,17.00
2018-10-09T09:18:39.693Z,19.30
2018-10-09T09:20:11.060Z,16.70
2018-10-09T09:23:14.107Z,24.70
2018-10-09T09:24:45.680Z,18.10
2018-10-09T09:26:17.525Z,19.30
2018-10-09T09:27:49.434Z,16.80
2018-10-09T09:29:20.395Z,16.10
2018-10-09T09:30:51.969Z,11.70
2018-10-09T09:32:23.794Z,11.80
2018-10-09T09:33:55.419Z,13.50
2018-10-09T09:35:26.686Z,9.70
2018-10-09T09:36:58.260Z,9.10
2018-10-09T09:40:01.405Z,8.60
2018-10-09T09:43:04.565Z,6.30
2018-10-09T09:44:36.123Z,5.10
2018-10-09T09:46:08.463Z,5.10
2018-10-09T09:47:39.803Z,3.70
2018-10-09T09:49:11.149Z,4.00
2018-10-09T09:50:42.418Z,2.90
2018-10-09T09:52:14.146Z,3.30
2018-10-09T09:53:45.771Z,3.60
2018-10-09T09:56:49.195Z,3.90
2018-10-09T09:58:20.592Z,2.70
2018-10-09T09:59:52.066Z,4.20
2018-10-09T10:02:55.011Z,5.10
2018-10-09T10:04:26.887Z,4.50
2018-10-09T10:05:58.231Z,4.00
2018-10-09T10:07:30.422Z,4.30
2018-10-09T10:09:01.314Z,4.10
2018-10-09T10:10:33.415Z,4.20
2018-10-09T10:12:05.077Z,4.20
2018-10-09T10:13:36.720Z,3.70
2018-10-09T10:15:08.111Z,4.00
2018-10-09T10:16:39.556Z,3.70
2018-10-09T10:19:42.535Z,3.90
2018-10-09T10:21:14.415Z,3.00
2018-10-09T10:24:18.574Z,3.80
2018-10-09T10:25:48.633Z,3.30
2018-10-09T10:28:52.870Z,3.60
2018-10-09T10:30:23.395Z,4.20
2018-10-09T10:33:26.851Z,5.00
2018-10-09T10:34:58.180Z,5.00
2018-10-09T10:38:01.996Z,3.80
2018-10-09T10:39:33.743Z,3.90
2018-10-09T10:41:04.512Z,4.70
2018-10-09T10:42:35.994Z,3.30
2018-10-09T10:44:07.672Z,3.30
2018-10-09T10:45:39.232Z,3.10
2018-10-09T10:47:10.968Z,3.20
2018-10-09T10:48:43.114Z,5.30
2018-10-09T10:50:14.362Z,4.50
2018-10-09T10:51:45.749Z,4.70
2018-10-09T10:53:18.470Z,4.60
2018-10-09T10:54:49.379Z,4.70
2018-10-09T10:56:21.198Z,5.30
2018-10-09T10:59:23.903Z,4.80
2018-10-09T11:00:55.808Z,4.40
2018-10-09T11:02:26.649Z,4.90
2018-10-09T11:03:58.447Z,5.20
2018-10-09T11:05:30.050Z,6.50
2018-10-09T11:07:01.261Z,4.50
2018-10-09T11:08:32.810Z,4.70
2018-10-09T11:10:04.810Z,4.70
2018-10-09T11:11:36.058Z,4.10
2018-10-09T11:13:07.557Z,4.40
2018-10-09T11:16:11.383Z,4.90
2018-10-09T11:17:42.605Z,5.10
2018-10-09T11:19:14.148Z,4.70
2018-10-09T11:20:45.657Z,4.00
2018-10-09T11:22:18.262Z,3.80
2018-10-09T11:23:48.707Z,3.90
2018-10-09T11:25:20.178Z,5.20
2018-10-09T11:26:51.863Z,4.00
2018-10-09T11:29:55.112Z,4.00
2018-10-09T11:32:59.020Z,2.60
2018-10-09T11:34:30.340Z,2.60
2018-10-09T11:36:01.837Z,3.40
2018-10-09T11:37:33.172Z,4.80
2018-10-09T11:39:04.794Z,2.90
2018-10-09T11:40:36.307Z,2.50
2018-10-09T11:42:07.592Z,2.60
2018-10-09T11:43:39.509Z,2.40
2018-10-09T11:45:11.397Z,2.40
2018-10-09T11:46:43.005Z,2.00
2018-10-09T11:48:14.705Z,2.80
2018-10-09T11:49:46.095Z,2.50
2018-10-09T11:51:16.961Z,2.20
2018-10-09T11:52:48.771Z,2.20
2018-10-09T11:54:20.361Z,2.00
2018-10-09T11:55:52.713Z,2.10
2018-10-09T11:57:23.348Z,2.40
2018-10-09T11:58:55.074Z,3.90
2018-10-09T12:01:58.269Z,2.60
2018-10-09T12:03:29.824Z,2.70
2018-10-09T12:05:01.832Z,2.60
2018-10-09T12:06:32.760Z,2.30
2018-10-09T12:08:04.488Z,2.50
2018-10-09T12:09:35.909Z,2.10
2018-10-09T12:11:07.930Z,2.60
2018-10-09T12:14:11.022Z,2.40
2018-10-09T12:15:42.301Z,2.20
2018-10-09T12:17:13.821Z,2.20
2018-10-09T12:18:45.427Z,2.20
2018-10-09T12:20:18.921Z,2.10
2018-10-09T12:21:48.661Z,2.10
2018-10-09T12:23:20.425Z,1.80
2018-10-09T12:24:51.955Z,2.30
2018-10-09T12:26:23.577Z,2.20
2018-10-09T12:27:55.158Z,2.30
2018-10-09T12:30:58.386Z,2.10
2018-10-09T12:34:02.289Z,2.20
2018-10-09T12:35:32.832Z,4.30
2018-10-09T12:37:04.446Z,2.10
2018-10-09T12:38:36.126Z,2.20
2018-10-09T12:40:07.845Z,2.20
2018-10-09T12:41:39.106Z,2.30
2018-10-09T12:43:10.921Z,2.20
2018-10-09T12:46:13.904Z,2.60
2018-10-09T12:49:17.340Z,2.50
2018-10-09T12:50:48.775Z,3.10
2018-10-09T12:52:20.321Z,3.60
2018-10-09T12:53:52.073Z,3.30
2018-10-09T12:55:24.019Z,3.70
2018-10-09T12:56:55.120Z,2.70
2018-10-09T12:58:26.906Z,3.10
2018-10-09T12:59:58.168Z,3.20
2018-10-09T13:01:29.831Z,3.60
2018-10-09T13:03:01.632Z,4.00
2018-10-09T13:04:33.519Z,3.10
2018-10-09T13:06:04.458Z,3.30
2018-10-09T13:07:36.164Z,3.90
2018-10-09T13:09:07.832Z,3.90
2018-10-09T13:10:39.219Z,3.30
2018-10-09T13:12:10.814Z,3.70
2018-10-09T13:15:14.145Z,3.30
2018-10-09T13:16:45.643Z,3.10
2018-10-09T13:18:17.131Z,3.00
2018-10-09T13:19:48.746Z,3.40
2018-10-09T13:21:20.804Z,3.20
2018-10-09T13:22:52.245Z,3.50
2018-10-09T13:24:24.378Z,3.60
2018-10-09T13:25:55.025Z,3.10
2018-10-09T13:27:27.110Z,3.50
2018-10-09T13:28:58.409Z,3.20
2018-10-09T13:30:30.290Z,2.80
2018-10-09T13:32:01.514Z,3.20
2018-10-09T13:33:33.230Z,2.80
2018-10-09T13:35:04.905Z,5.80
2018-10-09T13:36:36.542Z,2.90
2018-10-09T13:38:07.767Z,2.80
2018-10-09T13:39:39.288Z,3.00
2018-10-09T13:41:10.906Z,2.90
2018-10-09T13:42:42.541Z,2.40
2018-10-09T13:44:14.559Z,3.10
2018-10-09T13:45:46.109Z,2.50
2018-10-09T13:47:17.455Z,2.50
2018-10-09T13:48:49.053Z,2.70
2018-10-09T13:50:21.228Z,2.70
2018-10-09T13:51:52.094Z,2.80
2018-10-09T13:53:23.894Z,3.00
2018-10-09T13:54:55.313Z,2.70
2018-10-09T13:56:26.941Z,2.70
2018-10-09T13:59:30.059Z,2.70
2018-10-09T14:01:01.423Z,3.30
2018-10-09T14:02:33.362Z,2.60
2018-10-09T14:04:04.596Z,3.50
2018-10-09T14:05:36.208Z,2.80
2018-10-09T14:07:07.756Z,2.70
2018-10-09T14:08:39.352Z,2.90
2018-10-09T14:10:11.031Z,3.20
2018-10-09T14:11:42.903Z,2.60
2018-10-09T14:13:14.077Z,2.30
2018-10-09T14:14:45.660Z,3.70
2018-10-09T14:16:17.299Z,3.30
2018-10-09T14:17:48.883Z,3.00
2018-10-09T14:19:20.955Z,3.10
2018-10-09T14:20:52.034Z,2.90
2018-10-09T14:22:23.917Z,3.10
2018-10-09T14:23:56.294Z,3.00
2018-10-09T14:25:27.302Z,2.70
2018-10-09T14:26:58.570Z,2.80
2018-10-09T14:28:30.232Z,2.60
2018-10-09T14:31:33.578Z,2.50
2018-10-09T14:33:04.778Z,2.40
2018-10-09T14:34:36.350Z,3.00
2018-10-09T14:36:09.097Z,2.40
2018-10-09T14:37:40.724Z,3.40
2018-10-09T14:39:11.334Z,2.60
2018-10-09T14:40:43.143Z,3.50
2018-10-09T14:42:14.290Z,2.90
2018-10-09T14:43:46.513Z,3.10
2018-10-09T14:45:17.624Z,2.70
2018-10-09T14:46:49.443Z,4.90
2018-10-09T14:48:20.728Z,2.90
2018-10-09T14:49:52.411Z,2.50
2018-10-09T14:51:23.809Z,2.70
2018-10-09T14:52:55.384Z,3.30
2018-10-09T14:54:27.104Z,2.50
2018-10-09T14:55:58.615Z,2.70
2018-10-09T14:57:30.356Z,3.00
2018-10-09T14:59:01.732Z,2.80
2018-10-09T15:00:33.252Z,3.40
2018-10-09T15:02:04.724Z,3.80
2018-10-09T15:03:36.394Z,3.20
2018-10-09T15:05:08.284Z,3.20
2018-10-09T15:06:39.703Z,3.10
2018-10-09T15:08:12.161Z,3.30
2018-10-09T15:09:43.028Z,3.50
2018-10-09T15:11:15.079Z,3.80
2018-10-09T15:12:45.806Z,3.40
2018-10-09T15:14:18.153Z,3.60
2018-10-09T15:15:49.397Z,3.10
2018-10-09T15:17:20.607Z,3.60
2018-10-09T15:18:53.097Z,3.80
2018-10-09T15:20:23.905Z,3.10
2018-10-09T15:21:55.872Z,3.90
2018-10-09T15:23:27.214Z,3.40
2018-10-09T15:24:58.601Z,3.50
2018-10-09T15:26:30.926Z,3.30
2018-10-09T15:28:01.710Z,3.40
2018-10-09T15:29:33.228Z,3.60
2018-10-09T15:31:05.899Z,4.10
2018-10-09T15:32:36.509Z,3.90
2018-10-09T15:34:08.272Z,3.80
2018-10-09T15:35:39.942Z,3.60
2018-10-09T15:37:11.683Z,3.30
2018-10-09T15:38:43.177Z,4.00
2018-10-09T15:40:14.352Z,3.80
2018-10-09T15:41:46.293Z,3.20
2018-10-09T15:43:18.217Z,3.60
2018-10-09T15:44:49.210Z,4.30
2018-10-09T15:46:20.658Z,4.40
2018-10-09T15:47:52.322Z,3.70
2018-10-09T15:49:24.026Z,3.80
2018-10-09T15:50:55.602Z,4.10
2018-10-09T15:52:27.078Z,3.60
2018-10-09T15:53:58.873Z,4.00
2018-10-09T15:55:30.800Z,3.50
2018-10-09T15:57:01.958Z,3.40
2018-10-09T15:58:33.544Z,3.50
2018-10-09T16:00:05.415Z,4.30
2018-10-09T16:01:36.518Z,4.40
2018-10-09T16:03:08.510Z,3.60
2018-10-09T16:04:40.337Z,4.10
2018-10-09T16:06:11.372Z,3.70
2018-10-09T16:07:43.030Z,3.80
2018-10-09T16:09:14.640Z,3.60
2018-10-09T16:10:46.867Z,3.80
2018-10-09T16:12:17.669Z,3.70
2018-10-09T16:13:50.071Z,3.60
2018-10-09T16:15:21.265Z,3.40
2018-10-09T16:16:52.676Z,3.80
2018-10-09T16:18:25.093Z,3.50
2018-10-09T16:19:55.506Z,3.70
2018-10-09T16:22:59.001Z,3.80
2018-10-09T16:24:30.808Z,4.00
2018-10-09T16:27:33.608Z,3.70
2018-10-09T16:29:05.777Z,3.60
2018-10-09T16:30:37.168Z,3.50
2018-10-09T16:32:08.712Z,4.00
2018-10-09T16:33:39.850Z,3.60
2018-10-09T16:36:43.827Z,3.40
2018-10-09T16:38:16.158Z,3.90
2018-10-09T16:41:18.043Z,3.50
2018-10-09T16:42:49.542Z,4.50
2018-10-09T16:44:21.080Z,4.80
2018-10-09T16:45:52.709Z,3.70
2018-10-09T16:47:24.479Z,4.10
2018-10-09T16:48:55.975Z,3.80
2018-10-09T16:50:27.556Z,4.00
2018-10-09T16:51:59.196Z,4.40
2018-10-09T16:53:31.217Z,4.10
2018-10-09T16:55:03.716Z,4.20
2018-10-09T16:56:34.134Z,3.80
2018-10-09T16:58:06.523Z,4.20
2018-10-09T17:01:09.319Z,3.90
2018-10-09T17:02:40.305Z,3.80
2018-10-09T17:04:11.459Z,4.10
2018-10-09T17:05:43.107Z,3.40
2018-10-09T17:07:14.921Z,3.80
2018-10-09T17:08:46.664Z,4.50
2018-10-09T17:10:17.765Z,3.70
2018-10-09T17:11:49.929Z,3.90
2018-10-09T17:13:20.965Z,4.10
2018-10-09T17:14:52.832Z,4.10
2018-10-09T17:16:24.222Z,4.30
2018-10-09T17:17:55.659Z,3.90
2018-10-09T17:19:27.799Z,4.10
2018-10-09T17:24:02.003Z,4.80
2018-10-09T17:25:33.590Z,4.00
2018-10-09T17:27:05.172Z,4.40
2018-10-09T17:28:36.796Z,4.40
2018-10-09T17:30:08.544Z,4.20
2018-10-09T17:31:39.925Z,3.90
2018-10-09T17:33:11.635Z,3.90
2018-10-09T17:37:46.890Z,3.70
2018-10-09T17:39:18.459Z,3.90
2018-10-09T17:40:49.429Z,4.10
2018-10-09T17:42:21.692Z,3.80
2018-10-09T17:45:24.710Z,3.90
2018-10-09T17:46:55.871Z,4.30
2018-10-09T17:48:27.406Z,4.00
2018-10-09T17:49:59.165Z,3.70
2018-10-09T17:51:30.514Z,3.50
2018-10-09T17:53:02.403Z,3.90
2018-10-09T17:54:33.680Z,3.70
2018-10-09T17:57:37.032Z,3.90
2018-10-09T18:00:40.012Z,4.00
2018-10-09T18:02:12.184Z,4.00
2018-10-09T18:03:43.179Z,3.50
2018-10-09T18:05:15.286Z,4.20
2018-10-09T18:06:46.542Z,3.70
2018-10-09T18:08:18.272Z,4.10
2018-10-09T18:09:50.338Z,3.90
2018-10-09T18:12:53.385Z,3.70
2018-10-09T18:14:24.417Z,3.50
2018-10-09T18:15:56.535Z,3.30
2018-10-09T18:17:27.717Z,4.10
2018-10-09T18:18:59.343Z,4.70
2018-10-09T18:20:31.204Z,3.40
2018-10-09T18:22:02.576Z,3.70
2018-10-09T18:23:35.248Z,3.70
2018-10-09T18:25:06.889Z,4.60
2018-10-09T18:26:37.723Z,3.70
2018-10-09T18:28:09.787Z,4.10
2018-10-09T18:29:40.385Z,4.10
2018-10-09T18:31:13.751Z,3.80
2018-10-09T18:32:44.106Z,4.20
2018-10-09T18:34:16.316Z,4.20
2018-10-09T18:35:47.522Z,4.00
2018-10-09T18:37:18.317Z,4.20
2018-10-09T18:38:49.780Z,5.20
2018-10-09T18:40:21.427Z,4.00
2018-10-09T18:41:53.051Z,3.40
2018-10-09T18:43:25.270Z,4.20
2018-10-09T18:44:56.364Z,4.20
2018-10-09T18:47:59.800Z,3.70
2018-10-09T18:49:30.842Z,3.90
2018-10-09T18:51:02.535Z,4.00
2018-10-09T18:52:34.008Z,3.80
2018-10-09T18:54:05.630Z,4.20
2018-10-09T18:55:37.201Z,3.90
2018-10-09T18:57:08.839Z,4.10
2018-10-09T18:58:40.319Z,4.60
2018-10-09T19:00:12.228Z,4.20
2018-10-09T19:01:43.353Z,3.60
2018-10-09T19:03:14.922Z,3.80
2018-10-09T19:04:46.599Z,3.90
2018-10-09T19:06:18.251Z,3.90
2018-10-09T19:07:49.811Z,3.50
2018-10-09T19:09:21.231Z,3.50
2018-10-09T19:10:52.854Z,3.90
2018-10-09T19:12:24.540Z,4.00
2018-10-09T19:13:56.055Z,4.60
2018-10-09T19:15:27.556Z,4.00
2018-10-09T19:18:30.703Z,4.50
2018-10-09T19:20:02.481Z,4.20
2018-10-09T19:21:33.864Z,4.10
2018-10-09T19:23:05.443Z,4.90
2018-10-09T19:24:37.021Z,3.90
2018-10-09T19:26:08.602Z,4.10
2018-10-09T19:29:11.965Z,5.10
2018-10-09T19:32:15.025Z,4.60
2018-10-09T19:33:46.707Z,4.70
2018-10-09T19:38:21.247Z,4.70
2018-10-09T19:39:53.027Z,4.20
2018-10-09T19:41:24.405Z,4.20
2018-10-09T19:42:56.590Z,4.30
2018-10-09T19:44:27.868Z,4.10
2018-10-09T19:45:59.145Z,4.70
2018-10-09T19:47:30.727Z,4.40
2018-10-09T19:49:02.313Z,4.80
2018-10-09T19:50:34.093Z,3.80
2018-10-09T19:52:05.466Z,4.80
2018-10-09T19:53:37.047Z,5.00
2018-10-09T19:55:08.628Z,4.60
2018-10-09T19:56:40.260Z,4.40
2018-10-09T19:58:11.790Z,4.40
2018-10-09T19:59:43.376Z,4.00
2018-10-09T20:02:46.539Z,5.50
2018-10-09T20:04:18.321Z,4.00
2018-10-09T20:05:49.698Z,3.70
2018-10-09T20:07:21.279Z,4.00
2018-10-09T20:10:25.048Z,4.80
2018-10-09T20:14:59.477Z,4.20
2018-10-09T20:16:31.240Z,4.40
2018-10-09T20:18:03.069Z,3.70
2018-10-09T20:19:34.163Z,5.10
2018-10-09T20:21:05.817Z,4.40
2018-10-09T20:22:37.222Z,4.20
2018-10-09T20:24:08.795Z,4.40
2018-10-09T20:25:40.371Z,4.10
2018-10-09T20:27:11.871Z,4.50
2018-10-09T20:28:43.512Z,5.30
2018-10-09T20:30:15.079Z,5.40
2018-10-09T20:31:46.921Z,4.40
2018-10-09T20:33:18.706Z,4.90
2018-10-09T20:34:50.400Z,4.50
2018-10-09T20:36:22.464Z,5.00
2018-10-09T20:37:53.390Z,4.80
2018-10-09T20:39:24.643Z,5.00
2018-10-09T20:40:56.075Z,4.60
2018-10-09T20:42:27.711Z,5.20
2018-10-09T20:43:59.544Z,4.60
2018-10-09T20:45:31.752Z,5.40
2018-10-09T20:47:02.570Z,5.60
2018-10-09T20:48:34.124Z,5.10
2018-10-09T20:50:05.831Z,5.60
2018-10-09T20:51:37.143Z,5.40
2018-10-09T20:53:09.536Z,5.50
2018-10-09T20:54:40.523Z,5.50
2018-10-09T20:56:11.925Z,4.70
2018-10-09T20:57:43.524Z,5.30
2018-10-09T20:59:15.057Z,5.20
2018-10-09T21:00:46.597Z,5.20
2018-10-09T21:02:18.162Z,4.40
2018-10-09T21:03:50.036Z,5.30
2018-10-09T21:05:21.534Z,5.50
2018-10-09T21:06:52.925Z,5.70
2018-10-09T21:08:24.490Z,5.50
2018-10-09T21:09:56.108Z,5.90
2018-10-09T21:11:27.878Z,5.70
2018-10-09T21:14:30.981Z,5.90
2018-10-09T21:16:02.361Z,6.00
2018-10-09T21:17:33.978Z,5.20
2018-10-09T21:19:05.559Z,5.80
2018-10-09T21:20:37.121Z,5.90
2018-10-09T21:22:08.677Z,5.10
2018-10-09T21:23:40.574Z,4.90